sensor_id;sensor_type;location;lat;lon;timestamp;pressure;altitude;pressure_sealevel;temperature;humidity
65718;BME280;52445;52.466;-1.016;2024-01-15T00:00:39;99569.66;;;0.01;73.26
65718;BME280;52445;52.466;-1.016;2024-01-15T00:03:07;99575.50;;;-0.02;73.71
65718;BME280;52445;52.466;-1.016;2024-01-15T00:05:34;99569.53;;;-0.03;74.04
65718;BME280;52445;52.466;-1.016;2024-01-15T00:08:00;99569.47;;;-0.06;73.48
65718;BME280;52445;52.466;-1.016;2024-01-15T00:10:27;99577.91;;;-0.07;73.25
65718;BME280;52445;52.466;-1.016;2024-01-15T00:12:54;99573.59;;;-0.09;73.22
65718;BME280;52445;52.466;-1.016;2024-01-15T00:15:22;99574.34;;;-0.12;74.29
65718;BME280;52445;52.466;-1.016;2024-01-15T00:17:49;99562.44;;;-0.13;73.70
65718;BME280;52445;52.466;-1.016;2024-01-15T00:20:15;99553.78;;;-0.18;74.05
65718;BME280;52445;52.466;-1.016;2024-01-15T00:22:42;99551.16;;;-0.20;74.13
65718;BME280;52445;52.466;-1.016;2024-01-15T00:25:09;99546.97;;;-0.19;73.68
65718;BME280;52445;52.466;-1.016;2024-01-15T00:27:35;99549.56;;;-0.18;73.57
65718;BME280;52445;52.466;-1.016;2024-01-15T00:30:02;99544.41;;;-0.19;74.31
65718;BME280;52445;52.466;-1.016;2024-01-15T00:32:31;99541.00;;;-0.20;74.21
65718;BME280;52445;52.466;-1.016;2024-01-15T00:34:58;99543.53;;;-0.20;73.86
65718;BME280;52445;52.466;-1.016;2024-01-15T00:37:24;99540.16;;;-0.20;73.90
65718;BME280;52445;52.466;-1.016;2024-01-15T00:39:52;99543.50;;;-0.21;74.07
65718;BME280;52445;52.466;-1.016;2024-01-15T00:42:19;99545.94;;;-0.24;74.61
65718;BME280;52445;52.466;-1.016;2024-01-15T00:44:45;99540.81;;;-0.26;73.75
65718;BME280;52445;52.466;-1.016;2024-01-15T00:47:12;99536.56;;;-0.26;73.68
65718;BME280;52445;52.466;-1.016;2024-01-15T00:49:39;99543.28;;;-0.28;74.21
65718;BME280;52445;52.466;-1.016;2024-01-15T00:52:06;99536.38;;;-0.32;74.02
65718;BME280;52445;52.466;-1.016;2024-01-15T00:54:34;99540.69;;;-0.29;74.60
65718;BME280;52445;52.466;-1.016;2024-01-15T00:57:01;99538.97;;;-0.30;73.55
65718;BME280;52445;52.466;-1.016;2024-01-15T00:59:27;99532.09;;;-0.33;73.76
65718;BME280;52445;52.466;-1.016;2024-01-15T01:01:54;99526.09;;;-0.35;74.40
65718;BME280;52445;52.466;-1.016;2024-01-15T01:04:20;99538.75;;;-0.36;74.33
65718;BME280;52445;52.466;-1.016;2024-01-15T01:06:47;99536.16;;;-0.38;74.13
65718;BME280;52445;52.466;-1.016;2024-01-15T01:09:15;99527.63;;;-0.40;73.88
65718;BME280;52445;52.466;-1.016;2024-01-15T01:11:42;99534.31;;;-0.42;73.50
65718;BME280;52445;52.466;-1.016;2024-01-15T01:14:08;99535.09;;;-0.45;73.80
65718;BME280;52445;52.466;-1.016;2024-01-15T01:16:35;99529.91;;;-0.48;73.94
65718;BME280;52445;52.466;-1.016;2024-01-15T01:19:06;99534.03;;;-0.52;73.58
65718;BME280;52445;52.466;-1.016;2024-01-15T01:21:34;99531.38;;;-0.55;73.92
65718;BME280;52445;52.466;-1.016;2024-01-15T01:24:01;99529.59;;;-0.57;73.49
65718;BME280;52445;52.466;-1.016;2024-01-15T01:26:27;99526.19;;;-0.58;73.63
65718;BME280;52445;52.466;-1.016;2024-01-15T01:28:54;99526.06;;;-0.61;73.77
65718;BME280;52445;52.466;-1.016;2024-01-15T01:31:21;99520.09;;;-0.63;73.35
65718;BME280;52445;52.466;-1.016;2024-01-15T01:33:49;99529.25;;;-0.67;74.27
65718;BME280;52445;52.466;-1.016;2024-01-15T01:36:16;99523.34;;;-0.67;73.69
65718;BME280;52445;52.466;-1.016;2024-01-15T01:38:42;99528.41;;;-0.67;73.85
65718;BME280;52445;52.466;-1.016;2024-01-15T01:41:09;99523.34;;;-0.67;74.09
65718;BME280;52445;52.466;-1.016;2024-01-15T01:43:36;99513.06;;;-0.70;74.18
65718;BME280;52445;52.466;-1.016;2024-01-15T01:46:05;99521.59;;;-0.68;74.77
65718;BME280;52445;52.466;-1.016;2024-01-15T01:48:32;99517.31;;;-0.69;74.12
65718;BME280;52445;52.466;-1.016;2024-01-15T01:51:00;99522.28;;;-0.74;75.07
65718;BME280;52445;52.466;-1.016;2024-01-15T01:53:29;99514.56;;;-0.75;75.12
65718;BME280;52445;52.466;-1.016;2024-01-15T01:55:58;99514.66;;;-0.72;75.00
65718;BME280;52445;52.466;-1.016;2024-01-15T01:58:25;99511.31;;;-0.71;74.91
65718;BME280;52445;52.466;-1.016;2024-01-15T02:00:53;99509.56;;;-0.72;75.08
65718;BME280;52445;52.466;-1.016;2024-01-15T02:03:20;99514.66;;;-0.72;74.59
65718;BME280;52445;52.466;-1.016;2024-01-15T02:05:48;99507.84;;;-0.73;74.67
65718;BME280;52445;52.466;-1.016;2024-01-15T02:08:16;99504.34;;;-0.77;74.81
65718;BME280;52445;52.466;-1.016;2024-01-15T02:10:43;99506.06;;;-0.76;74.79
65718;BME280;52445;52.466;-1.016;2024-01-15T02:13:11;99504.28;;;-0.79;74.67
65718;BME280;52445;52.466;-1.016;2024-01-15T02:15:37;99508.50;;;-0.79;74.24
65718;BME280;52445;52.466;-1.016;2024-01-15T02:18:05;99497.38;;;-0.83;74.35
65718;BME280;52445;52.466;-1.016;2024-01-15T02:20:34;99504.94;;;-0.84;74.64
65718;BME280;52445;52.466;-1.016;2024-01-15T02:25:42;99503.13;;;-0.88;74.76
65718;BME280;52445;52.466;-1.016;2024-01-15T02:28:13;99499.63;;;-0.91;74.90
65718;BME280;52445;52.466;-1.016;2024-01-15T02:30:41;99500.41;;;-0.93;75.22
65718;BME280;52445;52.466;-1.016;2024-01-15T02:33:10;99502.06;;;-0.94;74.85
65718;BME280;52445;52.466;-1.016;2024-01-15T02:35:38;99493.53;;;-0.96;75.08
65718;BME280;52445;52.466;-1.016;2024-01-15T02:38:05;99488.44;;;-0.96;75.42
65718;BME280;52445;52.466;-1.016;2024-01-15T02:40:33;99480.72;;;-0.99;75.29
65718;BME280;52445;52.466;-1.016;2024-01-15T02:43:02;99480.72;;;-0.99;75.04
65718;BME280;52445;52.466;-1.016;2024-01-15T02:45:28;99491.75;;;-0.98;75.10
65718;BME280;52445;52.466;-1.016;2024-01-15T02:47:55;99484.91;;;-0.99;75.38
65718;BME280;52445;52.466;-1.016;2024-01-15T02:50:22;99485.75;;;-1.00;75.05
65718;BME280;52445;52.466;-1.016;2024-01-15T02:52:49;99491.66;;;-1.01;75.24
65718;BME280;52445;52.466;-1.016;2024-01-15T02:55:16;99488.16;;;-1.04;75.44
65718;BME280;52445;52.466;-1.016;2024-01-15T02:57:43;99494.00;;;-1.06;75.37
65718;BME280;52445;52.466;-1.016;2024-01-15T03:00:10;99491.41;;;-1.08;75.50
65718;BME280;52445;52.466;-1.016;2024-01-15T03:02:39;99481.06;;;-1.14;76.13
65718;BME280;52445;52.466;-1.016;2024-01-15T03:05:10;99480.16;;;-1.14;76.22
65718;BME280;52445;52.466;-1.016;2024-01-15T03:07:37;99485.31;;;-1.13;76.20
65718;BME280;52445;52.466;-1.016;2024-01-15T03:10:05;99480.28;;;-1.11;76.05
65718;BME280;52445;52.466;-1.016;2024-01-15T03:12:32;99482.88;;;-1.10;75.49
65718;BME280;52445;52.466;-1.016;2024-01-15T03:14:59;99481.16;;;-1.11;75.71
65718;BME280;52445;52.466;-1.016;2024-01-15T03:17:26;99477.69;;;-1.13;75.60
65718;BME280;52445;52.466;-1.016;2024-01-15T03:19:53;99485.31;;;-1.13;75.98
65718;BME280;52445;52.466;-1.016;2024-01-15T03:22:20;99484.44;;;-1.13;75.80
65718;BME280;52445;52.466;-1.016;2024-01-15T03:24:46;99492.00;;;-1.15;75.87
65718;BME280;52445;52.466;-1.016;2024-01-15T03:27:13;99490.34;;;-1.14;75.32
65718;BME280;52445;52.466;-1.016;2024-01-15T03:29:40;99491.22;;;-1.14;75.67
65718;BME280;52445;52.466;-1.016;2024-01-15T03:32:07;99498.78;;;-1.15;75.56
65718;BME280;52445;52.466;-1.016;2024-01-15T03:34:34;99486.91;;;-1.17;75.78
65718;BME280;52445;52.466;-1.016;2024-01-15T03:37:02;99485.13;;;-1.18;75.80
65718;BME280;52445;52.466;-1.016;2024-01-15T03:39:32;99486.00;;;-1.17;75.73
65718;BME280;52445;52.466;-1.016;2024-01-15T03:41:59;99489.25;;;-1.21;76.16
65718;BME280;52445;52.466;-1.016;2024-01-15T03:44:26;99485.03;;;-1.21;76.01
65718;BME280;52445;52.466;-1.016;2024-01-15T03:46:54;99479.09;;;-1.21;75.78
65718;BME280;52445;52.466;-1.016;2024-01-15T03:49:20;99474.00;;;-1.21;76.19
65718;BME280;52445;52.466;-1.016;2024-01-15T03:51:47;99475.63;;;-1.23;75.84
65718;BME280;52445;52.466;-1.016;2024-01-15T03:54:14;99473.91;;;-1.24;75.76
65718;BME280;52445;52.466;-1.016;2024-01-15T03:56:45;99481.47;;;-1.26;76.00
65718;BME280;52445;52.466;-1.016;2024-01-15T03:59:11;99490.75;;;-1.26;76.19
65718;BME280;52445;52.466;-1.016;2024-01-15T04:01:38;99494.09;;;-1.27;75.93
65718;BME280;52445;52.466;-1.016;2024-01-15T04:04:05;99499.88;;;-1.32;76.70
65718;BME280;52445;52.466;-1.016;2024-01-15T04:06:31;99487.31;;;-1.28;76.03
65718;BME280;52445;52.466;-1.016;2024-01-15T04:08:58;99485.47;;;-1.33;76.39
65718;BME280;52445;52.466;-1.016;2024-01-15T04:11:25;99479.50;;;-1.33;76.29
65718;BME280;52445;52.466;-1.016;2024-01-15T04:13:52;99489.72;;;-1.32;75.88
65718;BME280;52445;52.466;-1.016;2024-01-15T04:16:20;99488.91;;;-1.31;76.01
65718;BME280;52445;52.466;-1.016;2024-01-15T04:18:48;99495.63;;;-1.33;76.15
65718;BME280;52445;52.466;-1.016;2024-01-15T04:21:17;99494.81;;;-1.32;75.92
65718;BME280;52445;52.466;-1.016;2024-01-15T04:23:45;99494.75;;;-1.33;75.98
65718;BME280;52445;52.466;-1.016;2024-01-15T04:26:12;99492.16;;;-1.35;75.99
65718;BME280;52445;52.466;-1.016;2024-01-15T04:28:38;99495.50;;;-1.36;75.82
65718;BME280;52445;52.466;-1.016;2024-01-15T04:31:05;99492.06;;;-1.38;75.81
65718;BME280;52445;52.466;-1.016;2024-01-15T04:33:32;99490.31;;;-1.39;75.87
65718;BME280;52445;52.466;-1.016;2024-01-15T04:36:03;99491.94;;;-1.41;75.81
65718;BME280;52445;52.466;-1.016;2024-01-15T04:38:30;99488.47;;;-1.43;75.62
65718;BME280;52445;52.466;-1.016;2024-01-15T04:40:56;99480.84;;;-1.43;75.84
65718;BME280;52445;52.466;-1.016;2024-01-15T04:43:25;99479.06;;;-1.46;75.88
65718;BME280;52445;52.466;-1.016;2024-01-15T04:45:53;99476.47;;;-1.47;75.69
65718;BME280;52445;52.466;-1.016;2024-01-15T04:48:19;99475.50;;;-1.51;76.38
65718;BME280;52445;52.466;-1.016;2024-01-15T04:50:46;99475.50;;;-1.51;75.66
65718;BME280;52445;52.466;-1.016;2024-01-15T04:53:13;99481.34;;;-1.53;75.44
65718;BME280;52445;52.466;-1.016;2024-01-15T04:55:42;99477.88;;;-1.56;75.51
65718;BME280;52445;52.466;-1.016;2024-01-15T04:58:09;99480.47;;;-1.54;75.38
65718;BME280;52445;52.466;-1.016;2024-01-15T05:00:35;99487.16;;;-1.56;75.04
65718;BME280;52445;52.466;-1.016;2024-01-15T05:03:03;99481.22;;;-1.57;75.25
65718;BME280;52445;52.466;-1.016;2024-01-15T05:05:31;99492.06;;;-1.61;75.23
65718;BME280;52445;52.466;-1.016;2024-01-15T05:07:58;99485.31;;;-1.60;75.42
65718;BME280;52445;52.466;-1.016;2024-01-15T05:10:24;99484.47;;;-1.61;75.16
65718;BME280;52445;52.466;-1.016;2024-01-15T05:12:52;99486.06;;;-1.63;74.85
65718;BME280;52445;52.466;-1.016;2024-01-15T05:15:19;99485.16;;;-1.65;74.80
65718;BME280;52445;52.466;-1.016;2024-01-15T05:17:46;99492.78;;;-1.65;74.57
65718;BME280;52445;52.466;-1.016;2024-01-15T05:20:13;99481.63;;;-1.69;74.76
65718;BME280;52445;52.466;-1.016;2024-01-15T05:22:40;99494.25;;;-1.70;74.86
65718;BME280;52445;52.466;-1.016;2024-01-15T05:25:06;99498.47;;;-1.71;74.48
65718;BME280;52445;52.466;-1.016;2024-01-15T05:27:33;99500.97;;;-1.72;74.62
65718;BME280;52445;52.466;-1.016;2024-01-15T05:30:00;99503.44;;;-1.74;74.29
65718;BME280;52445;52.466;-1.016;2024-01-15T05:32:26;99488.84;;;-1.79;74.09
65718;BME280;52445;52.466;-1.016;2024-01-15T05:34:53;99487.09;;;-1.81;74.37
65718;BME280;52445;52.466;-1.016;2024-01-15T05:37:21;99487.81;;;-1.83;74.44
65718;BME280;52445;52.466;-1.016;2024-01-15T05:39:48;99485.13;;;-1.88;74.45
65718;BME280;52445;52.466;-1.016;2024-01-15T05:42:15;99479.31;;;-1.85;74.41
65718;BME280;52445;52.466;-1.016;2024-01-15T05:44:42;99476.84;;;-1.84;74.30
65718;BME280;52445;52.466;-1.016;2024-01-15T05:47:08;99474.97;;;-1.88;74.36
65718;BME280;52445;52.466;-1.016;2024-01-15T05:49:35;99473.22;;;-1.89;73.54
65718;BME280;52445;52.466;-1.016;2024-01-15T05:52:04;99480.06;;;-1.88;74.41
65718;BME280;52445;52.466;-1.016;2024-01-15T05:54:31;99474.03;;;-1.90;74.26
65718;BME280;52445;52.466;-1.016;2024-01-15T05:56:58;99476.72;;;-1.87;73.70
65718;BME280;52445;52.466;-1.016;2024-01-15T05:59:25;99476.72;;;-1.87;74.03
65718;BME280;52445;52.466;-1.016;2024-01-15T06:01:52;99478.31;;;-1.89;74.09
65718;BME280;52445;52.466;-1.016;2024-01-15T06:04:20;99479.81;;;-1.94;74.06
65718;BME280;52445;52.466;-1.016;2024-01-15T06:06:47;99473.97;;;-1.91;73.59
65718;BME280;52445;52.466;-1.016;2024-01-15T06:09:13;99468.91;;;-1.91;73.47
65718;BME280;52445;52.466;-1.016;2024-01-15T06:11:40;99463.81;;;-1.91;73.44
65718;BME280;52445;52.466;-1.016;2024-01-15T06:14:07;99464.69;;;-1.91;73.50
65718;BME280;52445;52.466;-1.016;2024-01-15T06:16:34;99449.34;;;-1.94;73.34
65718;BME280;52445;52.466;-1.016;2024-01-15T06:19:00;99455.25;;;-1.95;73.75
65718;BME280;52445;52.466;-1.016;2024-01-15T06:21:27;99457.72;;;-1.97;72.95
65718;BME280;52445;52.466;-1.016;2024-01-15T06:23:54;99470.34;;;-1.98;72.86
65718;BME280;52445;52.466;-1.016;2024-01-15T06:26:23;99466.09;;;-1.99;73.29
65718;BME280;52445;52.466;-1.016;2024-01-15T06:28:49;99461.75;;;-2.02;73.54
65718;BME280;52445;52.466;-1.016;2024-01-15T06:31:17;99460.06;;;-2.01;73.21
65718;BME280;52445;52.466;-1.016;2024-01-15T06:33:44;99457.41;;;-2.04;73.40
65718;BME280;52445;52.466;-1.016;2024-01-15T06:36:14;99457.41;;;-2.04;72.91
65718;BME280;52445;52.466;-1.016;2024-01-15T06:38:43;99454.78;;;-2.08;73.15
65718;BME280;52445;52.466;-1.016;2024-01-15T06:41:11;99460.75;;;-2.05;72.88
65718;BME280;52445;52.466;-1.016;2024-01-15T06:43:38;99460.75;;;-2.05;73.09
65718;BME280;52445;52.466;-1.016;2024-01-15T06:46:05;99467.56;;;-2.04;73.79
65718;BME280;52445;52.466;-1.016;2024-01-15T06:48:34;99474.31;;;-2.05;72.95
65718;BME280;52445;52.466;-1.016;2024-01-15T06:51:02;99472.63;;;-2.04;73.15
65718;BME280;52445;52.466;-1.016;2024-01-15T06:53:29;99476.13;;;-2.02;73.24
65718;BME280;52445;52.466;-1.016;2024-01-15T06:55:56;99481.19;;;-2.02;72.69
65718;BME280;52445;52.466;-1.016;2024-01-15T06:58:24;99477.72;;;-2.04;72.83
65718;BME280;52445;52.466;-1.016;2024-01-15T07:00:50;99482.00;;;-2.03;73.07
65718;BME280;52445;52.466;-1.016;2024-01-15T07:03:17;99492.22;;;-2.02;73.39
65718;BME280;52445;52.466;-1.016;2024-01-15T07:05:44;99497.28;;;-2.02;73.60
65718;BME280;52445;52.466;-1.016;2024-01-15T07:08:12;99509.09;;;-2.02;73.42
65718;BME280;52445;52.466;-1.016;2024-01-15T07:10:39;99508.41;;;-1.98;73.67
65718;BME280;52445;52.466;-1.016;2024-01-15T07:13:06;99510.97;;;-1.98;73.55
65718;BME280;52445;52.466;-1.016;2024-01-15T07:15:32;99511.91;;;-1.96;73.27
65718;BME280;52445;52.466;-1.016;2024-01-15T07:17:59;99500.94;;;-1.95;72.85
65718;BME280;52445;52.466;-1.016;2024-01-15T07:20:26;99506.00;;;-1.95;73.49
65718;BME280;52445;52.466;-1.016;2024-01-15T07:22:53;99511.09;;;-1.95;73.15
65718;BME280;52445;52.466;-1.016;2024-01-15T07:25:20;99506.81;;;-1.96;73.50
65718;BME280;52445;52.466;-1.016;2024-01-15T07:27:47;99511.03;;;-1.97;73.15
65718;BME280;52445;52.466;-1.016;2024-01-15T07:30:14;99508.41;;;-1.98;73.40
65718;BME280;52445;52.466;-1.016;2024-01-15T07:32:41;99502.38;;;-2.02;73.28
65718;BME280;52445;52.466;-1.016;2024-01-15T07:35:08;99510.78;;;-2.03;73.27
65718;BME280;52445;52.466;-1.016;2024-01-15T07:37:35;99518.31;;;-2.04;73.60
65718;BME280;52445;52.466;-1.016;2024-01-15T07:40:02;99522.56;;;-2.05;73.97
65718;BME280;52445;52.466;-1.016;2024-01-15T07:42:31;99531.00;;;-2.04;73.10
65718;BME280;52445;52.466;-1.016;2024-01-15T07:44:58;99523.31;;;-2.08;73.79
65718;BME280;52445;52.466;-1.016;2024-01-15T07:47:24;99541.13;;;-2.06;73.40
65718;BME280;52445;52.466;-1.016;2024-01-15T07:49:53;99553.75;;;-2.08;73.21
65718;BME280;52445;52.466;-1.016;2024-01-15T07:52:20;99552.88;;;-2.08;73.84
65718;BME280;52445;52.466;-1.016;2024-01-15T07:54:47;99555.34;;;-2.10;73.60
65718;BME280;52445;52.466;-1.016;2024-01-15T07:57:15;99546.06;;;-2.09;73.94
65718;BME280;52445;52.466;-1.016;2024-01-15T07:59:41;99544.31;;;-2.10;73.20
65718;BME280;52445;52.466;-1.016;2024-01-15T08:02:09;99556.97;;;-2.12;73.77
65718;BME280;52445;52.466;-1.016;2024-01-15T08:04:37;99550.00;;;-2.16;73.59
65718;BME280;52445;52.466;-1.016;2024-01-15T08:07:05;99550.13;;;-2.13;73.80
65718;BME280;52445;52.466;-1.016;2024-01-15T08:09:34;99546.81;;;-2.12;73.76
65718;BME280;52445;52.466;-1.016;2024-01-15T08:12:01;99542.59;;;-2.11;73.73
65718;BME280;52445;52.466;-1.016;2024-01-15T08:14:27;99535.78;;;-2.12;74.18
65718;BME280;52445;52.466;-1.016;2024-01-15T08:16:54;99535.03;;;-2.10;73.73
65718;BME280;52445;52.466;-1.016;2024-01-15T08:19:21;99528.47;;;-2.04;73.69
65718;BME280;52445;52.466;-1.016;2024-01-15T08:21:48;99530.59;;;-1.94;73.76
65718;BME280;52445;52.466;-1.016;2024-01-15T08:24:16;99524.38;;;-1.79;73.16
65718;BME280;52445;52.466;-1.016;2024-01-15T08:26:43;99519.75;;;-1.67;73.70
65718;BME280;52445;52.466;-1.016;2024-01-15T08:29:11;99536.97;;;-1.60;72.79
65718;BME280;52445;52.466;-1.016;2024-01-15T08:31:38;99551.53;;;-1.56;73.22
65718;BME280;52445;52.466;-1.016;2024-01-15T08:34:05;99561.31;;;-1.42;73.29
65718;BME280;52445;52.466;-1.016;2024-01-15T08:36:32;99568.63;;;-1.28;73.37
65718;BME280;52445;52.466;-1.016;2024-01-15T08:39:01;99576.13;;;-1.09;73.22
65718;BME280;52445;52.466;-1.016;2024-01-15T08:41:28;99586.19;;;-0.87;72.55
65718;BME280;52445;52.466;-1.016;2024-01-15T08:43:54;99592.59;;;-0.74;72.95
65718;BME280;52445;52.466;-1.016;2024-01-15T08:46:22;99593.44;;;-0.49;72.98
65718;BME280;52445;52.466;-1.016;2024-01-15T08:48:50;99597.97;;;-0.16;72.05
65718;BME280;52445;52.466;-1.016;2024-01-15T08:51:17;99596.00;;;0.29;71.57
65718;BME280;52445;52.466;-1.016;2024-01-15T08:53:45;99595.44;;;0.65;71.76
65718;BME280;52445;52.466;-1.016;2024-01-15T08:56:12;99605.06;;;1.05;71.79
65718;BME280;52445;52.466;-1.016;2024-01-15T08:58:38;99597.63;;;1.43;71.30
65718;BME280;52445;52.466;-1.016;2024-01-15T09:01:05;99609.34;;;1.69;70.51
65718;BME280;52445;52.466;-1.016;2024-01-15T09:03:33;99607.63;;;2.01;69.76
65718;BME280;52445;52.466;-1.016;2024-01-15T09:06:00;99606.13;;;2.47;68.75
65718;BME280;52445;52.466;-1.016;2024-01-15T09:08:27;99597.47;;;2.78;68.12
65718;BME280;52445;52.466;-1.016;2024-01-15T09:10:54;99608.47;;;3.16;67.25
65718;BME280;52445;52.466;-1.016;2024-01-15T09:13:21;99604.97;;;3.57;66.98
65718;BME280;52445;52.466;-1.016;2024-01-15T09:15:47;99599.81;;;4.03;66.64
65718;BME280;52445;52.466;-1.016;2024-01-15T09:18:14;99613.50;;;4.59;65.65
65718;BME280;52445;52.466;-1.016;2024-01-15T09:20:41;99616.03;;;5.23;65.42
65718;BME280;52445;52.466;-1.016;2024-01-15T09:23:08;99614.16;;;5.87;64.81
65718;BME280;52445;52.466;-1.016;2024-01-15T09:25:35;99616.28;;;6.30;62.83
65718;BME280;52445;52.466;-1.016;2024-01-15T09:28:02;99620.53;;;6.28;61.78
65718;BME280;52445;52.466;-1.016;2024-01-15T09:30:29;99628.19;;;6.19;62.51
65718;BME280;52445;52.466;-1.016;2024-01-15T09:32:57;99624.97;;;6.45;61.85
65718;BME280;52445;52.466;-1.016;2024-01-15T09:35:25;99628.66;;;6.84;61.96
65718;BME280;52445;52.466;-1.016;2024-01-15T09:37:51;99630.56;;;7.32;60.72
65718;BME280;52445;52.466;-1.016;2024-01-15T09:40:20;99629.84;;;7.81;59.74
65718;BME280;52445;52.466;-1.016;2024-01-15T09:42:48;99635.94;;;8.29;58.29
65718;BME280;52445;52.466;-1.016;2024-01-15T09:45:16;99641.06;;;8.79;58.09
65718;BME280;52445;52.466;-1.016;2024-01-15T09:47:43;99646.13;;;9.22;57.12
65718;BME280;52445;52.466;-1.016;2024-01-15T09:50:13;99644.25;;;9.54;56.05
65718;BME280;52445;52.466;-1.016;2024-01-15T09:52:44;99644.13;;;9.77;54.81
65718;BME280;52445;52.466;-1.016;2024-01-15T09:55:13;99654.22;;;10.18;54.60
65718;BME280;52445;52.466;-1.016;2024-01-15T09:57:43;99648.81;;;10.52;54.47
65718;BME280;52445;52.466;-1.016;2024-01-15T10:00:10;99650.25;;;10.78;52.68
65718;BME280;52445;52.466;-1.016;2024-01-15T10:02:38;99656.88;;;11.11;52.63
65718;BME280;52445;52.466;-1.016;2024-01-15T10:05:05;99655.81;;;11.27;51.80
65718;BME280;52445;52.466;-1.016;2024-01-15T10:07:35;99654.69;;;11.49;51.74
65718;BME280;52445;52.466;-1.016;2024-01-15T10:10:04;99653.56;;;11.67;51.44
65718;BME280;52445;52.466;-1.016;2024-01-15T10:12:31;99647.34;;;11.80;50.70
65718;BME280;52445;52.466;-1.016;2024-01-15T10:14:59;99640.06;;;12.04;50.68
65718;BME280;52445;52.466;-1.016;2024-01-15T10:17:25;99653.56;;;12.28;49.53
65718;BME280;52445;52.466;-1.016;2024-01-15T10:19:54;99654.81;;;12.57;48.96
65718;BME280;52445;52.466;-1.016;2024-01-15T10:22:21;99654.44;;;12.79;49.95
65718;BME280;52445;52.466;-1.016;2024-01-15T10:24:49;99653.09;;;13.05;48.80
65718;BME280;52445;52.466;-1.016;2024-01-15T10:27:16;99659.84;;;13.14;48.23
65718;BME280;52445;52.466;-1.016;2024-01-15T10:29:43;99662.06;;;13.34;48.07
65718;BME280;52445;52.466;-1.016;2024-01-15T10:32:11;99664.28;;;13.55;47.23
65718;BME280;52445;52.466;-1.016;2024-01-15T10:34:38;99656.09;;;13.72;47.49
65718;BME280;52445;52.466;-1.016;2024-01-15T10:37:08;99663.47;;;13.92;47.03
65718;BME280;52445;52.466;-1.016;2024-01-15T10:39:35;99667.47;;;14.07;46.50
65718;BME280;52445;52.466;-1.016;2024-01-15T10:42:03;99666.22;;;14.22;45.37
65718;BME280;52445;52.466;-1.016;2024-01-15T10:44:30;99668.88;;;14.21;45.21
65718;BME280;52445;52.466;-1.016;2024-01-15T10:46:58;99674.19;;;14.18;44.29
65718;BME280;52445;52.466;-1.016;2024-01-15T10:49:24;99672.66;;;14.07;44.00
65718;BME280;52445;52.466;-1.016;2024-01-15T10:51:59;99689.38;;;13.57;42.60
65718;BME280;52445;52.466;-1.016;2024-01-15T10:54:27;99686.19;;;12.97;43.61
65718;BME280;52445;52.466;-1.016;2024-01-15T10:56:56;99678.25;;;11.96;42.89
65718;BME280;52445;52.466;-1.016;2024-01-15T10:59:24;99684.50;;;11.09;44.94
65718;BME280;52445;52.466;-1.016;2024-01-15T11:01:52;99691.19;;;10.34;45.99
65718;BME280;52445;52.466;-1.016;2024-01-15T11:04:21;99695.81;;;9.87;46.40
65718;BME280;52445;52.466;-1.016;2024-01-15T11:06:52;99688.28;;;9.34;46.06
65718;BME280;52445;52.466;-1.016;2024-01-15T11:09:23;99691.00;;;8.74;45.85
65718;BME280;52445;52.466;-1.016;2024-01-15T11:11:54;99693.53;;;8.34;46.07
65718;BME280;52445;52.466;-1.016;2024-01-15T11:14:38;99696.94;;;7.94;47.12
65718;BME280;52445;52.466;-1.016;2024-01-15T11:17:05;99707.16;;;7.59;47.35
65718;BME280;52445;52.466;-1.016;2024-01-15T11:19:36;99705.19;;;7.10;47.94
65718;BME280;52445;52.466;-1.016;2024-01-15T11:22:08;99712.63;;;6.69;48.62
65718;BME280;52445;52.466;-1.016;2024-01-15T11:24:40;99710.56;;;6.29;49.09
65718;BME280;52445;52.466;-1.016;2024-01-15T11:27:08;99706.59;;;5.79;47.66
65718;BME280;52445;52.466;-1.016;2024-01-15T11:29:36;99709.69;;;5.50;48.94
65718;BME280;52445;52.466;-1.016;2024-01-15T11:32:05;99717.16;;;5.31;49.88
65718;BME280;52445;52.466;-1.016;2024-01-15T11:34:59;99715.91;;;5.03;50.26
65718;BME280;52445;52.466;-1.016;2024-01-15T11:40:44;99706.00;;;4.70;51.62
65718;BME280;52445;52.466;-1.016;2024-01-15T11:43:12;99705.00;;;4.60;50.62
65718;BME280;52445;52.466;-1.016;2024-01-15T11:45:39;99691.84;;;4.39;51.11
65718;BME280;52445;52.466;-1.016;2024-01-15T11:50:47;99696.06;;;4.36;51.92
65718;BME280;52445;52.466;-1.016;2024-01-15T11:53:33;99684.19;;;4.42;51.59
65718;BME280;52445;52.466;-1.016;2024-01-15T11:56:06;99691.00;;;4.40;51.83
65718;BME280;52445;52.466;-1.016;2024-01-15T11:58:38;99688.41;;;4.38;51.54
65718;BME280;52445;52.466;-1.016;2024-01-15T12:01:04;99696.06;;;4.36;51.24
65718;BME280;52445;52.466;-1.016;2024-01-15T12:03:32;99697.16;;;4.00;51.55
65718;BME280;52445;52.466;-1.016;2024-01-15T12:06:02;99697.03;;;3.94;51.66
65718;BME280;52445;52.466;-1.016;2024-01-15T12:08:31;99696.53;;;3.67;51.37
65718;BME280;52445;52.466;-1.016;2024-01-15T12:10:58;99700.56;;;3.56;52.39
65718;BME280;52445;52.466;-1.016;2024-01-15T12:13:24;99696.69;;;3.32;51.60
65718;BME280;52445;52.466;-1.016;2024-01-15T12:15:51;99700.91;;;3.31;52.51
65718;BME280;52445;52.466;-1.016;2024-01-15T12:18:18;99704.19;;;3.24;53.25
65718;BME280;52445;52.466;-1.016;2024-01-15T12:20:47;99692.16;;;3.20;53.21
65718;BME280;52445;52.466;-1.016;2024-01-15T12:23:15;99695.91;;;2.96;52.42
65718;BME280;52445;52.466;-1.016;2024-01-15T12:25:43;99689.19;;;3.01;53.47
65718;BME280;52445;52.466;-1.016;2024-01-15T12:28:10;99697.59;;;2.95;53.86
65718;BME280;52445;52.466;-1.016;2024-01-15T12:30:37;99708.50;;;2.87;53.27
65718;BME280;52445;52.466;-1.016;2024-01-15T12:33:05;99703.22;;;2.80;53.53
65718;BME280;52445;52.466;-1.016;2024-01-15T12:35:33;99696.31;;;2.76;54.36
65718;BME280;52445;52.466;-1.016;2024-01-15T12:38:02;99697.97;;;2.74;53.19
65718;BME280;52445;52.466;-1.016;2024-01-15T12:40:31;99699.63;;;2.72;54.31
65718;BME280;52445;52.466;-1.016;2024-01-15T12:42:58;99701.25;;;2.70;54.59
65718;BME280;52445;52.466;-1.016;2024-01-15T12:45:25;99696.91;;;2.66;54.14
65718;BME280;52445;52.466;-1.016;2024-01-15T12:47:53;99698.63;;;2.65;54.30
65718;BME280;52445;52.466;-1.016;2024-01-15T12:50:25;99713.84;;;2.61;53.44
65718;BME280;52445;52.466;-1.016;2024-01-15T12:52:52;99711.22;;;2.57;54.49
65718;BME280;52445;52.466;-1.016;2024-01-15T12:55:19;99706.88;;;2.55;53.20
65718;BME280;52445;52.466;-1.016;2024-01-15T12:57:46;99708.56;;;2.54;53.78
65718;BME280;52445;52.466;-1.016;2024-01-15T13:00:13;99706.88;;;2.55;54.05
65718;BME280;52445;52.466;-1.016;2024-01-15T13:02:42;99706.72;;;2.49;53.44